sensor_id;sensor_type;location;lat;lon;timestamp;P1;durP1;ratioP1;P2;durP2;ratioP2
6763;SDS011;47432;48.760;9.178;2023-02-28T00:00:48;9.90;;;3.60;;
6763;SDS011;47432;48.760;9.178;2023-02-28T00:03:14;13.50;;;5.60;;
6763;SDS011;47432;48.760;9.178;2023-02-28T00:05:40;10.97;;;4.07;;
6763;SDS011;47432;48.760;9.178;2023-02-28T00:08:06;12.07;;;4.87;;
6763;SDS011;47432;48.760;9.178;2023-02-28T00:10:32;12.00;;;5.10;;
6763;SDS011;47432;48.760;9.178;2023-02-28T00:12:59;12.00;;;4.47;;
6763;SDS011;47432;48.760;9.178;2023-02-28T00:15:26;10.50;;;4.60;;
6763;SDS011;47432;48.760;9.178;2023-02-28T00:17:52;10.77;;;4.47;;
6763;SDS011;47432;48.760;9.178;2023-02-28T00:20:18;11.47;;;4.70;;
6763;SDS011;47432;48.760;9.178;2023-02-28T00:22:46;14.20;;;4.20;;
6763;SDS011;47432;48.760;9.178;2023-02-28T00:25:15;11.70;;;4.80;;
6763;SDS011;47432;48.760;9.178;2023-02-28T00:27:42;11.50;;;4.20;;
6763;SDS011;47432;48.760;9.178;2023-02-28T00:30:12;11.87;;;4.97;;
6763;SDS011;47432;48.760;9.178;2023-02-28T00:32:40;12.40;;;4.00;;
6763;SDS011;47432;48.760;9.178;2023-02-28T00:35:06;13.70;;;5.30;;
6763;SDS011;47432;48.760;9.178;2023-02-28T00:37:35;14.07;;;5.20;;
6763;SDS011;47432;48.760;9.178;2023-02-28T00:40:01;10.27;;;4.40;;
6763;SDS011;47432;48.760;9.178;2023-02-28T00:42:30;9.80;;;3.90;;
6763;SDS011;47432;48.760;9.178;2023-02-28T00:44:56;15.23;;;6.37;;
6763;SDS011;47432;48.760;9.178;2023-02-28T00:47:24;10.07;;;4.10;;
6763;SDS011;47432;48.760;9.178;2023-02-28T00:49:51;10.57;;;4.43;;
6763;SDS011;47432;48.760;9.178;2023-02-28T00:52:17;11.60;;;4.70;;
6763;SDS011;47432;48.760;9.178;2023-02-28T00:54:45;11.40;;;4.20;;
6763;SDS011;47432;48.760;9.178;2023-02-28T00:57:11;12.60;;;4.33;;
6763;SDS011;47432;48.760;9.178;2023-02-28T00:59:37;11.97;;;5.10;;
6763;SDS011;47432;48.760;9.178;2023-02-28T01:02:06;14.10;;;4.93;;
6763;SDS011;47432;48.760;9.178;2023-02-28T01:04:34;12.60;;;4.47;;
6763;SDS011;47432;48.760;9.178;2023-02-28T01:07:01;11.93;;;4.67;;
6763;SDS011;47432;48.760;9.178;2023-02-28T01:09:27;9.60;;;3.80;;
6763;SDS011;47432;48.760;9.178;2023-02-28T01:11:53;14.17;;;5.70;;
6763;SDS011;47432;48.760;9.178;2023-02-28T01:14:19;12.17;;;5.87;;
6763;SDS011;47432;48.760;9.178;2023-02-28T01:16:45;11.20;;;3.80;;
6763;SDS011;47432;48.760;9.178;2023-02-28T01:19:11;12.03;;;4.57;;
6763;SDS011;47432;48.760;9.178;2023-02-28T01:21:37;9.97;;;3.70;;
6763;SDS011;47432;48.760;9.178;2023-02-28T01:24:04;11.90;;;4.30;;
6763;SDS011;47432;48.760;9.178;2023-02-28T01:26:32;13.30;;;4.40;;
6763;SDS011;47432;48.760;9.178;2023-02-28T01:29:01;11.80;;;4.90;;
6763;SDS011;47432;48.760;9.178;2023-02-28T01:31:27;10.37;;;4.03;;
6763;SDS011;47432;48.760;9.178;2023-02-28T01:33:53;12.30;;;5.13;;
6763;SDS011;47432;48.760;9.178;2023-02-28T01:36:21;10.80;;;4.27;;
6763;SDS011;47432;48.760;9.178;2023-02-28T01:38:51;10.80;;;4.43;;
6763;SDS011;47432;48.760;9.178;2023-02-28T01:41:21;10.20;;;4.10;;
6763;SDS011;47432;48.760;9.178;2023-02-28T01:46:24;12.10;;;4.97;;
6763;SDS011;47432;48.760;9.178;2023-02-28T01:49:01;10.33;;;3.60;;
6763;SDS011;47432;48.760;9.178;2023-02-28T01:51:49;10.17;;;4.00;;
6763;SDS011;47432;48.760;9.178;2023-02-28T01:54:24;11.20;;;4.40;;
6763;SDS011;47432;48.760;9.178;2023-02-28T01:56:57;11.43;;;4.53;;
6763;SDS011;47432;48.760;9.178;2023-02-28T02:02:24;12.00;;;4.60;;
6763;SDS011;47432;48.760;9.178;2023-02-28T02:04:52;13.97;;;4.97;;
6763;SDS011;47432;48.760;9.178;2023-02-28T02:07:32;11.23;;;4.60;;
6763;SDS011;47432;48.760;9.178;2023-02-28T02:10:13;13.37;;;4.63;;
6763;SDS011;47432;48.760;9.178;2023-02-28T02:13:08;13.23;;;5.60;;
6763;SDS011;47432;48.760;9.178;2023-02-28T02:16:00;10.43;;;4.60;;
6763;SDS011;47432;48.760;9.178;2023-02-28T02:18:53;10.03;;;3.80;;
6763;SDS011;47432;48.760;9.178;2023-02-28T02:30:44;10.40;;;4.23;;
6763;SDS011;47432;48.760;9.178;2023-02-28T02:35:54;15.00;;;5.90;;
6763;SDS011;47432;48.760;9.178;2023-02-28T02:38:49;13.33;;;5.90;;
6763;SDS011;47432;48.760;9.178;2023-02-28T02:46:44;13.80;;;5.70;;
6763;SDS011;47432;48.760;9.178;2023-02-28T02:49:19;12.77;;;6.07;;
6763;SDS011;47432;48.760;9.178;2023-02-28T02:51:53;10.73;;;4.40;;
6763;SDS011;47432;48.760;9.178;2023-02-28T02:54:25;13.43;;;5.50;;
6763;SDS011;47432;48.760;9.178;2023-02-28T02:56:53;12.13;;;4.73;;
6763;SDS011;47432;48.760;9.178;2023-02-28T02:59:22;12.70;;;6.00;;
6763;SDS011;47432;48.760;9.178;2023-02-28T03:01:52;11.90;;;5.60;;
6763;SDS011;47432;48.760;9.178;2023-02-28T03:04:22;10.97;;;4.23;;
6763;SDS011;47432;48.760;9.178;2023-02-28T03:06:52;11.60;;;5.10;;
6763;SDS011;47432;48.760;9.178;2023-02-28T03:09:22;12.00;;;5.47;;
6763;SDS011;47432;48.760;9.178;2023-02-28T03:11:48;12.30;;;5.47;;
6763;SDS011;47432;48.760;9.178;2023-02-28T03:17:05;11.80;;;5.70;;
6763;SDS011;47432;48.760;9.178;2023-02-28T03:25:33;12.43;;;5.83;;
6763;SDS011;47432;48.760;9.178;2023-02-28T03:33:54;15.80;;;5.47;;
6763;SDS011;47432;48.760;9.178;2023-02-28T03:36:29;12.77;;;6.30;;
6763;SDS011;47432;48.760;9.178;2023-02-28T03:39:04;13.03;;;6.07;;
6763;SDS011;47432;48.760;9.178;2023-02-28T03:42:08;15.07;;;5.43;;
6763;SDS011;47432;48.760;9.178;2023-02-28T03:47:02;12.57;;;5.50;;
6763;SDS011;47432;48.760;9.178;2023-02-28T03:49:35;11.47;;;5.60;;
6763;SDS011;47432;48.760;9.178;2023-02-28T03:52:08;11.87;;;5.73;;
6763;SDS011;47432;48.760;9.178;2023-02-28T03:54:36;11.43;;;5.23;;
6763;SDS011;47432;48.760;9.178;2023-02-28T04:02:42;13.10;;;5.80;;
6763;SDS011;47432;48.760;9.178;2023-02-28T04:05:08;11.73;;;5.70;;
6763;SDS011;47432;48.760;9.178;2023-02-28T04:07:34;12.00;;;5.20;;
6763;SDS011;47432;48.760;9.178;2023-02-28T04:10:00;14.93;;;6.03;;
6763;SDS011;47432;48.760;9.178;2023-02-28T04:12:28;13.37;;;6.00;;
6763;SDS011;47432;48.760;9.178;2023-02-28T04:14:54;15.07;;;7.00;;
6763;SDS011;47432;48.760;9.178;2023-02-28T04:17:20;13.17;;;5.77;;
6763;SDS011;47432;48.760;9.178;2023-02-28T04:19:49;11.93;;;5.20;;
6763;SDS011;47432;48.760;9.178;2023-02-28T04:22:19;14.67;;;6.67;;
6763;SDS011;47432;48.760;9.178;2023-02-28T04:24:45;13.27;;;6.40;;
6763;SDS011;47432;48.760;9.178;2023-02-28T04:27:11;11.53;;;5.20;;
6763;SDS011;47432;48.760;9.178;2023-02-28T04:29:40;12.43;;;5.63;;
6763;SDS011;47432;48.760;9.178;2023-02-28T04:32:11;11.87;;;5.77;;
6763;SDS011;47432;48.760;9.178;2023-02-28T04:34:40;15.37;;;5.70;;
6763;SDS011;47432;48.760;9.178;2023-02-28T04:37:06;19.07;;;10.10;;
6763;SDS011;47432;48.760;9.178;2023-02-28T04:39:35;12.73;;;5.80;;
6763;SDS011;47432;48.760;9.178;2023-02-28T04:42:01;13.50;;;6.13;;
6763;SDS011;47432;48.760;9.178;2023-02-28T04:44:28;14.17;;;6.23;;
6763;SDS011;47432;48.760;9.178;2023-02-28T04:46:54;12.70;;;5.90;;
6763;SDS011;47432;48.760;9.178;2023-02-28T04:49:22;14.00;;;5.97;;
6763;SDS011;47432;48.760;9.178;2023-02-28T04:51:48;20.13;;;7.13;;
6763;SDS011;47432;48.760;9.178;2023-02-28T04:54:15;12.67;;;4.80;;
6763;SDS011;47432;48.760;9.178;2023-02-28T04:56:42;14.63;;;6.40;;
6763;SDS011;47432;48.760;9.178;2023-02-28T04:59:09;12.10;;;5.60;;
6763;SDS011;47432;48.760;9.178;2023-02-28T05:01:37;16.40;;;6.60;;
6763;SDS011;47432;48.760;9.178;2023-02-28T05:04:03;11.33;;;5.10;;
6763;SDS011;47432;48.760;9.178;2023-02-28T05:06:33;12.27;;;5.63;;
6763;SDS011;47432;48.760;9.178;2023-02-28T05:08:59;14.47;;;6.80;;
6763;SDS011;47432;48.760;9.178;2023-02-28T05:11:27;13.50;;;6.47;;
6763;SDS011;47432;48.760;9.178;2023-02-28T05:13:54;13.30;;;5.63;;
6763;SDS011;47432;48.760;9.178;2023-02-28T05:16:20;13.37;;;6.23;;
6763;SDS011;47432;48.760;9.178;2023-02-28T05:18:47;13.00;;;6.67;;
6763;SDS011;47432;48.760;9.178;2023-02-28T05:21:23;14.33;;;6.10;;
6763;SDS011;47432;48.760;9.178;2023-02-28T05:23:51;15.60;;;6.23;;
6763;SDS011;47432;48.760;9.178;2023-02-28T05:26:18;14.60;;;6.23;;
6763;SDS011;47432;48.760;9.178;2023-02-28T05:28:44;14.00;;;6.70;;
6763;SDS011;47432;48.760;9.178;2023-02-28T05:31:11;13.13;;;6.00;;
6763;SDS011;47432;48.760;9.178;2023-02-28T05:33:37;16.40;;;6.77;;
6763;SDS011;47432;48.760;9.178;2023-02-28T05:36:06;14.30;;;6.87;;
6763;SDS011;47432;48.760;9.178;2023-02-28T05:38:32;13.10;;;6.13;;
6763;SDS011;47432;48.760;9.178;2023-02-28T05:40:59;13.83;;;6.20;;
6763;SDS011;47432;48.760;9.178;2023-02-28T05:43:25;14.60;;;6.67;;
6763;SDS011;47432;48.760;9.178;2023-02-28T05:45:51;14.00;;;7.67;;
6763;SDS011;47432;48.760;9.178;2023-02-28T05:48:17;15.27;;;7.20;;
6763;SDS011;47432;48.760;9.178;2023-02-28T05:50:43;13.03;;;6.87;;
6763;SDS011;47432;48.760;9.178;2023-02-28T05:53:11;14.60;;;7.10;;
6763;SDS011;47432;48.760;9.178;2023-02-28T05:55:37;14.77;;;6.93;;
6763;SDS011;47432;48.760;9.178;2023-02-28T05:58:03;13.63;;;6.50;;
6763;SDS011;47432;48.760;9.178;2023-02-28T06:00:29;16.77;;;7.43;;
6763;SDS011;47432;48.760;9.178;2023-02-28T06:02:55;15.30;;;7.27;;
6763;SDS011;47432;48.760;9.178;2023-02-28T06:05:24;15.00;;;7.40;;
6763;SDS011;47432;48.760;9.178;2023-02-28T06:07:53;14.10;;;6.07;;
6763;SDS011;47432;48.760;9.178;2023-02-28T06:10:19;15.97;;;6.50;;
6763;SDS011;47432;48.760;9.178;2023-02-28T06:12:47;16.20;;;6.53;;
6763;SDS011;47432;48.760;9.178;2023-02-28T06:15:16;16.30;;;8.17;;
6763;SDS011;47432;48.760;9.178;2023-02-28T06:17:43;14.90;;;7.40;;
6763;SDS011;47432;48.760;9.178;2023-02-28T06:20:10;16.47;;;6.70;;
6763;SDS011;47432;48.760;9.178;2023-02-28T06:22:38;17.63;;;6.93;;
6763;SDS011;47432;48.760;9.178;2023-02-28T06:25:04;13.50;;;5.97;;
6763;SDS011;47432;48.760;9.178;2023-02-28T06:27:36;15.03;;;6.43;;
6763;SDS011;47432;48.760;9.178;2023-02-28T06:30:02;16.83;;;8.60;;
6763;SDS011;47432;48.760;9.178;2023-02-28T06:32:28;14.07;;;6.27;;
6763;SDS011;47432;48.760;9.178;2023-02-28T06:34:54;15.50;;;9.03;;
6763;SDS011;47432;48.760;9.178;2023-02-28T06:37:25;17.17;;;8.00;;
6763;SDS011;47432;48.760;9.178;2023-02-28T06:39:52;15.13;;;7.37;;
6763;SDS011;47432;48.760;9.178;2023-02-28T06:42:20;15.03;;;7.10;;
6763;SDS011;47432;48.760;9.178;2023-02-28T06:44:56;17.37;;;7.57;;
6763;SDS011;47432;48.760;9.178;2023-02-28T06:47:22;15.33;;;6.87;;
6763;SDS011;47432;48.760;9.178;2023-02-28T06:49:48;15.90;;;7.67;;
6763;SDS011;47432;48.760;9.178;2023-02-28T06:52:14;18.20;;;8.17;;
6763;SDS011;47432;48.760;9.178;2023-02-28T06:54:41;18.43;;;7.60;;
6763;SDS011;47432;48.760;9.178;2023-02-28T06:57:09;13.97;;;6.33;;
6763;SDS011;47432;48.760;9.178;2023-02-28T06:59:35;17.70;;;7.77;;
6763;SDS011;47432;48.760;9.178;2023-02-28T07:02:03;17.70;;;7.20;;
6763;SDS011;47432;48.760;9.178;2023-02-28T07:04:31;15.07;;;7.67;;
6763;SDS011;47432;48.760;9.178;2023-02-28T07:06:57;12.70;;;6.30;;
6763;SDS011;47432;48.760;9.178;2023-02-28T07:09:26;15.50;;;8.10;;
6763;SDS011;47432;48.760;9.178;2023-02-28T07:11:54;15.20;;;7.27;;
6763;SDS011;47432;48.760;9.178;2023-02-28T07:14:21;18.73;;;7.83;;
6763;SDS011;47432;48.760;9.178;2023-02-28T07:16:47;18.13;;;8.37;;
6763;SDS011;47432;48.760;9.178;2023-02-28T07:19:13;20.73;;;8.37;;
6763;SDS011;47432;48.760;9.178;2023-02-28T07:21:41;17.07;;;8.17;;
6763;SDS011;47432;48.760;9.178;2023-02-28T07:24:12;19.10;;;9.30;;
6763;SDS011;47432;48.760;9.178;2023-02-28T07:26:40;13.33;;;7.03;;
6763;SDS011;47432;48.760;9.178;2023-02-28T07:29:06;14.97;;;7.27;;
6763;SDS011;47432;48.760;9.178;2023-02-28T07:31:32;24.70;;;8.60;;
6763;SDS011;47432;48.760;9.178;2023-02-28T07:33:59;17.67;;;8.23;;
6763;SDS011;47432;48.760;9.178;2023-02-28T07:36:25;18.13;;;8.40;;
6763;SDS011;47432;48.760;9.178;2023-02-28T07:38:51;15.20;;;7.70;;
6763;SDS011;47432;48.760;9.178;2023-02-28T07:41:18;16.03;;;8.50;;
6763;SDS011;47432;48.760;9.178;2023-02-28T07:43:46;15.97;;;8.83;;
6763;SDS011;47432;48.760;9.178;2023-02-28T07:46:13;14.97;;;8.10;;
6763;SDS011;47432;48.760;9.178;2023-02-28T07:48:40;16.10;;;8.73;;
6763;SDS011;47432;48.760;9.178;2023-02-28T07:51:07;16.20;;;7.30;;
6763;SDS011;47432;48.760;9.178;2023-02-28T07:53:35;17.27;;;8.93;;
6763;SDS011;47432;48.760;9.178;2023-02-28T07:56:02;17.57;;;8.10;;
6763;SDS011;47432;48.760;9.178;2023-02-28T07:58:29;19.77;;;8.47;;
6763;SDS011;47432;48.760;9.178;2023-02-28T08:01:04;15.60;;;8.10;;
6763;SDS011;47432;48.760;9.178;2023-02-28T08:03:31;16.07;;;8.33;;
6763;SDS011;47432;48.760;9.178;2023-02-28T08:06:00;19.07;;;8.77;;
6763;SDS011;47432;48.760;9.178;2023-02-28T08:08:29;18.30;;;8.73;;
6763;SDS011;47432;48.760;9.178;2023-02-28T08:10:58;16.53;;;8.23;;
6763;SDS011;47432;48.760;9.178;2023-02-28T08:13:25;17.60;;;9.10;;
6763;SDS011;47432;48.760;9.178;2023-02-28T08:15:53;21.90;;;10.60;;
6763;SDS011;47432;48.760;9.178;2023-02-28T08:18:21;17.20;;;8.27;;
6763;SDS011;47432;48.760;9.178;2023-02-28T08:20:48;14.20;;;6.77;;
6763;SDS011;47432;48.760;9.178;2023-02-28T08:23:14;17.07;;;8.97;;
6763;SDS011;47432;48.760;9.178;2023-02-28T08:25:40;16.70;;;8.37;;
6763;SDS011;47432;48.760;9.178;2023-02-28T08:28:06;16.93;;;9.00;;
6763;SDS011;47432;48.760;9.178;2023-02-28T08:30:33;19.73;;;8.43;;
6763;SDS011;47432;48.760;9.178;2023-02-28T08:32:58;18.00;;;7.37;;
6763;SDS011;47432;48.760;9.178;2023-02-28T08:35:24;14.83;;;6.60;;
6763;SDS011;47432;48.760;9.178;2023-02-28T08:37:51;17.90;;;9.50;;
6763;SDS011;47432;48.760;9.178;2023-02-28T08:40:17;19.53;;;8.90;;
6763;SDS011;47432;48.760;9.178;2023-02-28T08:42:49;13.57;;;7.40;;
6763;SDS011;47432;48.760;9.178;2023-02-28T08:45:17;18.73;;;9.27;;
6763;SDS011;47432;48.760;9.178;2023-02-28T08:47:43;17.40;;;8.67;;
6763;SDS011;47432;48.760;9.178;2023-02-28T08:50:11;18.03;;;9.40;;
6763;SDS011;47432;48.760;9.178;2023-02-28T08:52:42;18.20;;;9.50;;
6763;SDS011;47432;48.760;9.178;2023-02-28T08:55:08;19.00;;;9.37;;
6763;SDS011;47432;48.760;9.178;2023-02-28T08:57:37;17.17;;;8.57;;
6763;SDS011;47432;48.760;9.178;2023-02-28T09:00:03;17.60;;;8.10;;
6763;SDS011;47432;48.760;9.178;2023-02-28T09:02:30;28.80;;;9.80;;
6763;SDS011;47432;48.760;9.178;2023-02-28T09:04:57;22.77;;;10.17;;
6763;SDS011;47432;48.760;9.178;2023-02-28T09:07:23;21.37;;;9.73;;
6763;SDS011;47432;48.760;9.178;2023-02-28T09:09:50;19.83;;;9.97;;
6763;SDS011;47432;48.760;9.178;2023-02-28T09:12:19;23.20;;;10.73;;
6763;SDS011;47432;48.760;9.178;2023-02-28T09:14:50;17.23;;;7.90;;
6763;SDS011;47432;48.760;9.178;2023-02-28T09:17:17;19.90;;;10.07;;
6763;SDS011;47432;48.760;9.178;2023-02-28T09:19:47;16.90;;;8.30;;
6763;SDS011;47432;48.760;9.178;2023-02-28T09:22:14;18.83;;;8.70;;
6763;SDS011;47432;48.760;9.178;2023-02-28T09:24:43;17.67;;;9.23;;
6763;SDS011;47432;48.760;9.178;2023-02-28T09:27:09;20.07;;;9.90;;
6763;SDS011;47432;48.760;9.178;2023-02-28T09:29:38;17.30;;;9.43;;
6763;SDS011;47432;48.760;9.178;2023-02-28T09:32:04;19.03;;;8.10;;
6763;SDS011;47432;48.760;9.178;2023-02-28T09:34:30;15.77;;;8.37;;
6763;SDS011;47432;48.760;9.178;2023-02-28T09:36:56;15.90;;;7.57;;
6763;SDS011;47432;48.760;9.178;2023-02-28T09:39:23;17.03;;;9.13;;
6763;SDS011;47432;48.760;9.178;2023-02-28T09:41:56;18.60;;;10.40;;
6763;SDS011;47432;48.760;9.178;2023-02-28T09:44:44;17.10;;;9.17;;
6763;SDS011;47432;48.760;9.178;2023-02-28T09:47:14;15.33;;;8.37;;
6763;SDS011;47432;48.760;9.178;2023-02-28T09:49:53;19.80;;;9.37;;
6763;SDS011;47432;48.760;9.178;2023-02-28T09:52:28;15.87;;;8.33;;
6763;SDS011;47432;48.760;9.178;2023-02-28T09:54:55;16.83;;;9.80;;
6763;SDS011;47432;48.760;9.178;2023-02-28T09:57:38;14.50;;;7.77;;
6763;SDS011;47432;48.760;9.178;2023-02-28T10:00:18;16.90;;;9.30;;
6763;SDS011;47432;48.760;9.178;2023-02-28T10:02:53;16.73;;;8.73;;
6763;SDS011;47432;48.760;9.178;2023-02-28T10:05:24;20.70;;;9.83;;
6763;SDS011;47432;48.760;9.178;2023-02-28T10:16:06;21.97;;;9.40;;
6763;SDS011;47432;48.760;9.178;2023-02-28T10:18:41;19.43;;;9.80;;
6763;SDS011;47432;48.760;9.178;2023-02-28T10:21:17;19.00;;;9.90;;
6763;SDS011;47432;48.760;9.178;2023-02-28T10:23:53;15.50;;;8.67;;
6763;SDS011;47432;48.760;9.178;2023-02-28T10:26:27;18.77;;;9.37;;
6763;SDS011;47432;48.760;9.178;2023-02-28T10:28:55;19.10;;;9.73;;
6763;SDS011;47432;48.760;9.178;2023-02-28T10:31:23;18.97;;;9.20;;
6763;SDS011;47432;48.760;9.178;2023-02-28T10:33:49;16.30;;;8.60;;
6763;SDS011;47432;48.760;9.178;2023-02-28T10:36:16;20.57;;;10.37;;
6763;SDS011;47432;48.760;9.178;2023-02-28T10:38:44;17.30;;;9.70;;
6763;SDS011;47432;48.760;9.178;2023-02-28T10:43:40;17.10;;;8.70;;
6763;SDS011;47432;48.760;9.178;2023-02-28T10:46:13;17.30;;;10.20;;
6763;SDS011;47432;48.760;9.178;2023-02-28T10:49:03;16.83;;;9.20;;
6763;SDS011;47432;48.760;9.178;2023-02-28T10:51:36;17.47;;;9.67;;
6763;SDS011;47432;48.760;9.178;2023-02-28T10:54:04;19.50;;;10.73;;
6763;SDS011;47432;48.760;9.178;2023-02-28T10:56:31;20.10;;;10.27;;
6763;SDS011;47432;48.760;9.178;2023-02-28T10:59:21;17.53;;;10.70;;
6763;SDS011;47432;48.760;9.178;2023-02-28T11:01:55;15.50;;;8.43;;
6763;SDS011;47432;48.760;9.178;2023-02-28T11:07:04;18.43;;;9.77;;
6763;SDS011;47432;48.760;9.178;2023-02-28T11:09:48;17.27;;;9.50;;
6763;SDS011;47432;48.760;9.178;2023-02-28T11:12:36;14.53;;;8.80;;
6763;SDS011;47432;48.760;9.178;2023-02-28T11:20:40;21.00;;;10.30;;
6763;SDS011;47432;48.760;9.178;2023-02-28T11:23:06;20.40;;;10.13;;
6763;SDS011;47432;48.760;9.178;2023-02-28T11:25:38;18.87;;;10.30;;
6763;SDS011;47432;48.760;9.178;2023-02-28T11:28:05;17.13;;;8.63;;
6763;SDS011;47432;48.760;9.178;2023-02-28T11:30:59;15.30;;;9.53;;
6763;SDS011;47432;48.760;9.178;2023-02-28T11:33:40;17.83;;;10.90;;
6763;SDS011;47432;48.760;9.178;2023-02-28T11:36:24;18.70;;;10.17;;
6763;SDS011;47432;48.760;9.178;2023-02-28T11:38:59;16.30;;;8.90;;
6763;SDS011;47432;48.760;9.178;2023-02-28T11:44:27;16.37;;;8.90;;
6763;SDS011;47432;48.760;9.178;2023-02-28T11:49:52;18.20;;;10.20;;
6763;SDS011;47432;48.760;9.178;2023-02-28T11:58:23;20.63;;;10.53;;
6763;SDS011;47432;48.760;9.178;2023-02-28T12:06:44;15.57;;;9.17;;
6763;SDS011;47432;48.760;9.178;2023-02-28T12:12:04;17.83;;;9.83;;
6763;SDS011;47432;48.760;9.178;2023-02-28T12:14:56;23.20;;;10.73;;
6763;SDS011;47432;48.760;9.178;2023-02-28T12:20:34;22.07;;;9.47;;
6763;SDS011;47432;48.760;9.178;2023-02-28T12:23:31;20.13;;;11.10;;
6763;SDS011;47432;48.760;9.178;2023-02-28T12:26:16;17.10;;;9.07;;
6763;SDS011;47432;48.760;9.178;2023-02-28T12:28:53;18.00;;;10.20;;
6763;SDS011;47432;48.760;9.178;2023-02-28T12:31:35;18.47;;;9.57;;
6763;SDS011;47432;48.760;9.178;2023-02-28T12:34:07;16.50;;;9.00;;
6763;SDS011;47432;48.760;9.178;2023-02-28T12:36:41;18.20;;;9.03;;
6763;SDS011;47432;48.760;9.178;2023-02-28T12:39:14;17.37;;;9.17;;
6763;SDS011;47432;48.760;9.178;2023-02-28T12:41:56;17.73;;;9.03;;
6763;SDS011;47432;48.760;9.178;2023-02-28T12:44:35;16.20;;;8.40;;
6763;SDS011;47432;48.760;9.178;2023-02-28T12:47:17;17.93;;;9.07;;
6763;SDS011;47432;48.760;9.178;2023-02-28T12:49:50;16.23;;;9.07;;
6763;SDS011;47432;48.760;9.178;2023-02-28T12:52:22;18.73;;;10.13;;
6763;SDS011;47432;48.760;9.178;2023-02-28T12:55:00;13.87;;;8.90;;
6763;SDS011;47432;48.760;9.178;2023-02-28T12:57:36;16.13;;;8.33;;
6763;SDS011;47432;48.760;9.178;2023-02-28T13:00:15;16.47;;;9.70;;
6763;SDS011;47432;48.760;9.178;2023-02-28T13:10:57;17.60;;;9.07;;
6763;SDS011;47432;48.760;9.178;2023-02-28T13:13:23;15.93;;;9.50;;
6763;SDS011;47432;48.760;9.178;2023-02-28T13:15:56;15.63;;;10.07;;
6763;SDS011;47432;48.760;9.178;2023-02-28T13:18:41;16.37;;;8.60;;
6763;SDS011;47432;48.760;9.178;2023-02-28T13:21:09;16.50;;;9.13;;
6763;SDS011;47432;48.760;9.178;2023-02-28T13:29:41;18.90;;;9.50;;
6763;SDS011;47432;48.760;9.178;2023-02-28T13:34:39;16.60;;;9.10;;
6763;SDS011;47432;48.760;9.178;2023-02-28T13:40:00;15.47;;;8.93;;
6763;SDS011;47432;48.760;9.178;2023-02-28T13:45:24;18.23;;;10.90;;
6763;SDS011;47432;48.760;9.178;2023-02-28T13:47:56;17.17;;;9.40;;
6763;SDS011;47432;48.760;9.178;2023-02-28T13:50:37;16.30;;;9.30;;
6763;SDS011;47432;48.760;9.178;2023-02-28T14:00:54;14.93;;;8.70;;
6763;SDS011;47432;48.760;9.178;2023-02-28T14:03:33;18.20;;;9.47;;
6763;SDS011;47432;48.760;9.178;2023-02-28T14:06:25;15.90;;;10.63;;
6763;SDS011;47432;48.760;9.178;2023-02-28T14:09:05;14.93;;;8.70;;
6763;SDS011;47432;48.760;9.178;2023-02-28T14:11:44;14.47;;;8.70;;
6763;SDS011;47432;48.760;9.178;2023-02-28T14:16:59;17.30;;;9.37;;
6763;SDS011;47432;48.760;9.178;2023-02-28T14:19:26;15.70;;;9.37;;
6763;SDS011;47432;48.760;9.178;2023-02-28T14:24:26;17.00;;;9.67;;
6763;SDS011;47432;48.760;9.178;2023-02-28T14:27:21;14.63;;;9.10;;
6763;SDS011;47432;48.760;9.178;2023-02-28T14:35:23;14.37;;;8.40;;
6763;SDS011;47432;48.760;9.178;2023-02-28T14:37:52;15.90;;;9.27;;
6763;SDS011;47432;48.760;9.178;2023-02-28T14:40:34;16.93;;;8.70;;
6763;SDS011;47432;48.760;9.178;2023-02-28T14:43:02;15.70;;;9.47;;
6763;SDS011;47432;48.760;9.178;2023-02-28T14:45:30;19.00;;;10.10;;
6763;SDS011;47432;48.760;9.178;2023-02-28T14:47:58;14.93;;;8.63;;
6763;SDS011;47432;48.760;9.178;2023-02-28T14:50:31;16.43;;;10.30;;
6763;SDS011;47432;48.760;9.178;2023-02-28T14:53:01;15.63;;;9.13;;
6763;SDS011;47432;48.760;9.178;2023-02-28T14:55:28;14.80;;;8.53;;
6763;SDS011;47432;48.760;9.178;2023-02-28T14:57:57;17.00;;;9.07;;
6763;SDS011;47432;48.760;9.178;2023-02-28T15:00:32;16.00;;;8.83;;
6763;SDS011;47432;48.760;9.178;2023-02-28T15:03:17;13.77;;;8.20;;
6763;SDS011;47432;48.760;9.178;2023-02-28T15:05:51;14.60;;;8.40;;
6763;SDS011;47432;48.760;9.178;2023-02-28T15:08:22;17.23;;;10.03;;
6763;SDS011;47432;48.760;9.178;2023-02-28T15:13:37;16.70;;;8.00;;
6763;SDS011;47432;48.760;9.178;2023-02-28T15:16:12;16.67;;;9.57;;
6763;SDS011;47432;48.760;9.178;2023-02-28T15:21:39;15.20;;;9.57;;
6763;SDS011;47432;48.760;9.178;2023-02-28T15:24:17;16.90;;;9.13;;
6763;SDS011;47432;48.760;9.178;2023-02-28T15:27:02;14.03;;;8.37;;
6763;SDS011;47432;48.760;9.178;2023-02-28T15:29:36;16.80;;;8.70;;
6763;SDS011;47432;48.760;9.178;2023-02-28T15:32:29;15.40;;;8.00;;
6763;SDS011;47432;48.760;9.178;2023-02-28T15:34:57;15.10;;;8.67;;
6763;SDS011;47432;48.760;9.178;2023-02-28T15:40:13;15.57;;;8.90;;
6763;SDS011;47432;48.760;9.178;2023-02-28T15:43:05;19.40;;;9.93;;
6763;SDS011;47432;48.760;9.178;2023-02-28T15:45:44;15.67;;;8.97;;
6763;SDS011;47432;48.760;9.178;2023-02-28T15:48:18;16.90;;;9.20;;
6763;SDS011;47432;48.760;9.178;2023-02-28T15:50:52;16.50;;;9.30;;
6763;SDS011;47432;48.760;9.178;2023-02-28T15:58:58;14.70;;;8.40;;
6763;SDS011;47432;48.760;9.178;2023-02-28T16:01:29;18.20;;;9.83;;
6763;SDS011;47432;48.760;9.178;2023-02-28T16:03:59;17.87;;;10.23;;
6763;SDS011;47432;48.760;9.178;2023-02-28T16:06:32;16.70;;;9.60;;
6763;SDS011;47432;48.760;9.178;2023-02-28T16:09:05;17.00;;;9.40;;
6763;SDS011;47432;48.760;9.178;2023-02-28T16:11:34;16.97;;;9.50;;
6763;SDS011;47432;48.760;9.178;2023-02-28T16:14:06;18.50;;;9.23;;
6763;SDS011;47432;48.760;9.178;2023-02-28T16:16:46;15.67;;;9.60;;
6763;SDS011;47432;48.760;9.178;2023-02-28T16:19:14;16.53;;;9.40;;
6763;SDS011;47432;48.760;9.178;2023-02-28T16:21:40;15.73;;;8.90;;
6763;SDS011;47432;48.760;9.178;2023-02-28T16:24:07;18.07;;;9.57;;
6763;SDS011;47432;48.760;9.178;2023-02-28T16:26:35;15.60;;;8.63;;
6763;SDS011;47432;48.760;9.178;2023-02-28T16:29:04;15.20;;;9.10;;
6763;SDS011;47432;48.760;9.178;2023-02-28T16:31:30;17.77;;;9.97;;
6763;SDS011;47432;48.760;9.178;2023-02-28T16:34:00;20.00;;;10.30;;
6763;SDS011;47432;48.760;9.178;2023-02-28T16:36:28;16.53;;;9.47;;
6763;SDS011;47432;48.760;9.178;2023-02-28T16:38:55;19.60;;;10.00;;
6763;SDS011;47432;48.760;9.178;2023-02-28T16:41:21;23.50;;;13.90;;
6763;SDS011;47432;48.760;9.178;2023-02-28T16:43:52;19.40;;;9.53;;
6763;SDS011;47432;48.760;9.178;2023-02-28T16:46:23;17.97;;;9.80;;
6763;SDS011;47432;48.760;9.178;2023-02-28T16:48:58;17.27;;;9.03;;
6763;SDS011;47432;48.760;9.178;2023-02-28T16:51:25;17.70;;;9.90;;
6763;SDS011;47432;48.760;9.178;2023-02-28T16:53:51;19.33;;;9.47;;
6763;SDS011;47432;48.760;9.178;2023-02-28T16:56:21;16.97;;;10.33;;
6763;SDS011;47432;48.760;9.178;2023-02-28T16:58:48;17.37;;;10.10;;
6763;SDS011;47432;48.760;9.178;2023-02-28T17:01:15;17.37;;;9.10;;
6763;SDS011;47432;48.760;9.178;2023-02-28T17:03:41;18.40;;;10.27;;
6763;SDS011;47432;48.760;9.178;2023-02-28T17:06:16;16.87;;;9.70;;
6763;SDS011;47432;48.760;9.178;2023-02-28T17:08:42;16.73;;;9.47;;
6763;SDS011;47432;48.760;9.178;2023-02-28T17:11:08;17.17;;;10.10;;
6763;SDS011;47432;48.760;9.178;2023-02-28T17:13:34;20.47;;;10.33;;
6763;SDS011;47432;48.760;9.178;2023-02-28T17:16:02;16.97;;;9.50;;
6763;SDS011;47432;48.760;9.178;2023-02-28T17:18:28;19.07;;;9.73;;
6763;SDS011;47432;48.760;9.178;2023-02-28T17:20:58;16.70;;;9.33;;
6763;SDS011;47432;48.760;9.178;2023-02-28T17:23:24;19.10;;;10.50;;
6763;SDS011;47432;48.760;9.178;2023-02-28T17:25:50;17.63;;;9.40;;
6763;SDS011;47432;48.760;9.178;2023-02-28T17:28:20;18.93;;;10.07;;